createdAt,value
2023-01-12T00:02:22.035Z,9.93
2023-01-12T00:04:50.261Z,9.23
2023-01-12T00:07:19.000Z,10.03
2023-01-12T00:09:47.080Z,10.37
2023-01-12T00:12:16.542Z,10.00
2023-01-12T00:14:44.569Z,10.70
2023-01-12T00:17:16.881Z,9.63
2023-01-12T00:19:44.951Z,10.33
2023-01-12T00:22:16.606Z,11.17
2023-01-12T00:24:46.389Z,11.20
2023-01-12T00:27:19.215Z,11.13
2023-01-12T00:29:47.440Z,11.23
2023-01-12T00:32:18.414Z,11.00
2023-01-12T00:34:46.518Z,11.23
2023-01-12T00:37:15.213Z,11.33
2023-01-12T00:39:53.130Z,10.17
2023-01-12T00:42:47.673Z,9.53
2023-01-12T00:45:25.399Z,10.43
2023-01-12T00:47:54.615Z,11.60
2023-01-12T00:50:23.173Z,10.37
2023-01-12T00:52:51.270Z,10.00
2023-01-12T00:55:19.693Z,9.70
2023-01-12T00:57:49.214Z,10.17
2023-01-12T01:00:18.469Z,9.83
2023-01-12T01:02:46.808Z,9.70
2023-01-12T01:05:15.095Z,9.70
2023-01-12T01:07:43.266Z,10.93
2023-01-12T01:10:12.569Z,9.70
2023-01-12T01:12:40.685Z,9.67
2023-01-12T01:15:11.169Z,10.13
2023-01-12T01:17:39.276Z,9.17
2023-01-12T01:20:07.955Z,9.10
2023-01-12T01:22:36.054Z,9.23
2023-01-12T01:25:04.150Z,9.93
2023-01-12T01:27:32.264Z,9.07
2023-01-12T01:30:00.315Z,9.33
2023-01-12T01:32:29.781Z,10.43
2023-01-12T01:34:57.878Z,10.33
2023-01-12T01:37:25.949Z,10.27
2023-01-12T01:39:55.213Z,10.07
2023-01-12T01:42:28.966Z,8.70
2023-01-12T01:44:59.494Z,9.17
2023-01-12T01:47:36.001Z,9.33
2023-01-12T01:50:13.458Z,8.83
2023-01-12T01:52:45.399Z,9.93
2023-01-12T01:55:18.191Z,9.17
2023-01-12T01:57:52.086Z,9.23
2023-01-12T02:00:20.964Z,8.97
2023-01-12T02:02:50.620Z,8.93
2023-01-12T02:05:22.114Z,8.20
2023-01-12T02:07:50.963Z,8.00
2023-01-12T02:10:20.572Z,9.27
2023-01-12T02:13:06.668Z,7.30
2023-01-12T02:16:00.916Z,7.47
2023-01-12T02:18:37.310Z,6.90
2023-01-12T02:21:16.037Z,6.67
2023-01-12T02:24:23.621Z,6.50
2023-01-12T02:27:39.449Z,7.20
2023-01-12T02:30:53.027Z,6.20
2023-01-12T02:33:39.447Z,6.17
2023-01-12T02:36:16.770Z,5.80
2023-01-12T02:38:51.067Z,6.10
2023-01-12T02:41:45.168Z,5.20
2023-01-12T02:44:23.785Z,5.43
2023-01-12T02:46:53.195Z,5.90
2023-01-12T02:49:28.143Z,5.53
2023-01-12T02:51:59.791Z,5.50
2023-01-12T02:54:29.756Z,5.53
2023-01-12T02:57:04.390Z,5.97
2023-01-12T02:59:35.223Z,6.13
2023-01-12T03:02:12.186Z,5.93
2023-01-12T03:04:42.064Z,5.93
2023-01-12T03:07:43.327Z,5.97
2023-01-12T03:10:26.244Z,5.70
2023-01-12T03:12:55.343Z,6.00
2023-01-12T03:15:25.201Z,5.70
2023-01-12T03:17:59.424Z,4.73
2023-01-12T03:20:32.723Z,5.23
2023-01-12T03:23:05.643Z,4.67
2023-01-12T03:25:35.063Z,5.37
2023-01-12T03:28:06.122Z,5.20
2023-01-12T03:30:38.691Z,4.60
2023-01-12T03:33:08.048Z,5.00
2023-01-12T03:35:44.858Z,5.13
2023-01-12T03:38:20.464Z,5.43
2023-01-12T03:40:57.135Z,5.70
2023-01-12T03:43:31.868Z,5.30
2023-01-12T03:46:05.948Z,5.30
2023-01-12T03:48:39.718Z,4.67
2023-01-12T03:51:14.024Z,5.53
2023-01-12T03:53:44.346Z,5.37
2023-01-12T03:56:15.328Z,5.20
2023-01-12T03:58:44.264Z,5.33
2023-01-12T04:01:12.885Z,5.43
2023-01-12T04:03:41.085Z,6.17
2023-01-12T04:06:10.682Z,6.43
2023-01-12T04:08:38.847Z,5.23
2023-01-12T04:11:22.349Z,5.87
2023-01-12T04:13:50.393Z,5.20
2023-01-12T04:16:18.778Z,5.47
2023-01-12T04:18:46.929Z,5.77
2023-01-12T04:21:34.186Z,5.43
2023-01-12T04:24:02.287Z,5.70
2023-01-12T04:26:30.313Z,5.23
2023-01-12T04:29:00.380Z,6.57
2023-01-12T04:31:28.863Z,5.93
2023-01-12T04:33:57.006Z,6.73
2023-01-12T04:36:26.436Z,6.23
2023-01-12T04:38:54.503Z,6.53
2023-01-12T04:41:22.553Z,6.43
2023-01-12T04:43:50.762Z,6.03
2023-01-12T04:46:18.879Z,8.00
2023-01-12T04:48:47.083Z,6.27
2023-01-12T04:51:15.195Z,7.07
2023-01-12T04:53:44.872Z,6.87
2023-01-12T04:56:12.976Z,7.10
2023-01-12T04:58:42.321Z,6.73
2023-01-12T05:01:11.388Z,6.87
2023-01-12T05:03:39.851Z,7.67
2023-01-12T05:06:08.691Z,6.60
2023-01-12T05:08:54.502Z,6.20
2023-01-12T05:11:28.490Z,7.13
2023-01-12T05:13:56.684Z,7.53
2023-01-12T05:16:25.020Z,7.20
2023-01-12T05:18:54.423Z,7.13
2023-01-12T05:21:26.767Z,6.93
2023-01-12T05:23:54.897Z,7.13
2023-01-12T05:26:24.337Z,9.90
2023-01-12T05:28:55.754Z,8.77
2023-01-12T05:31:24.030Z,8.93
2023-01-12T05:33:52.130Z,8.00
2023-01-12T05:36:20.586Z,7.77
2023-01-12T05:38:48.856Z,8.10
2023-01-12T05:41:17.045Z,8.77
2023-01-12T05:43:51.688Z,9.83
2023-01-12T05:46:22.186Z,10.13
2023-01-12T05:48:50.824Z,10.70
2023-01-12T05:51:19.114Z,10.30
2023-01-12T05:53:47.328Z,10.60
2023-01-12T05:56:20.129Z,9.37
2023-01-12T05:58:54.226Z,8.90
2023-01-12T06:01:25.635Z,9.60
2023-01-12T06:03:55.559Z,9.90
2023-01-12T06:06:26.122Z,9.53
2023-01-12T06:08:55.268Z,9.40
2023-01-12T06:11:42.941Z,10.93
2023-01-12T06:14:12.779Z,11.07
2023-01-12T06:16:44.246Z,11.27
2023-01-12T06:19:13.376Z,11.70
2023-01-12T06:21:42.165Z,11.80
2023-01-12T06:24:10.420Z,11.03
2023-01-12T06:26:38.585Z,9.43
2023-01-12T06:29:07.317Z,10.07
2023-01-12T06:31:38.836Z,9.57
2023-01-12T06:34:07.998Z,11.33
2023-01-12T06:36:36.865Z,10.43
2023-01-12T06:39:05.543Z,10.67
2023-01-12T06:41:52.392Z,10.40
2023-01-12T06:44:20.575Z,11.37
2023-01-12T06:46:50.091Z,10.43
2023-01-12T06:49:18.545Z,10.20
2023-01-12T06:51:48.998Z,10.50
2023-01-12T06:54:18.399Z,10.53
2023-01-12T06:56:47.101Z,10.37
2023-01-12T06:59:15.296Z,10.30
2023-01-12T07:01:43.561Z,9.93
2023-01-12T07:04:13.193Z,9.60
2023-01-12T07:06:41.409Z,9.60
2023-01-12T07:09:09.569Z,10.97
2023-01-12T07:11:37.775Z,8.77
2023-01-12T07:14:07.799Z,10.00
2023-01-12T07:16:37.211Z,10.03
2023-01-12T07:19:05.396Z,10.87
2023-01-12T07:21:34.923Z,10.93
2023-01-12T07:24:03.263Z,11.33
2023-01-12T07:26:31.361Z,11.73
2023-01-12T07:28:59.442Z,11.20
2023-01-12T07:31:27.654Z,12.40
2023-01-12T07:33:56.130Z,10.00
2023-01-12T07:36:25.755Z,11.80
2023-01-12T07:38:55.274Z,13.40
2023-01-12T07:41:40.684Z,11.60
2023-01-12T07:44:11.592Z,11.83
2023-01-12T07:46:39.842Z,12.13
2023-01-12T07:49:07.942Z,11.80
2023-01-12T07:51:36.089Z,10.57
2023-01-12T07:54:05.757Z,10.20
2023-01-12T07:56:33.949Z,9.63
2023-01-12T07:59:02.013Z,9.00
2023-01-12T08:01:32.611Z,8.87
2023-01-12T08:04:00.778Z,8.37
2023-01-12T08:06:29.055Z,9.10
2023-01-12T08:08:57.175Z,9.47
2023-01-12T08:11:26.959Z,9.80
2023-01-12T08:13:56.213Z,8.70
2023-01-12T08:16:28.699Z,8.93
2023-01-12T08:19:03.410Z,8.83
2023-01-12T08:21:36.901Z,9.17
2023-01-12T08:24:07.421Z,9.00
2023-01-12T08:26:41.110Z,9.03
2023-01-12T08:29:13.150Z,9.80
2023-01-12T08:31:42.059Z,8.87
2023-01-12T08:34:10.997Z,9.17
2023-01-12T08:36:44.039Z,9.43
2023-01-12T08:39:12.915Z,9.50
2023-01-12T08:41:42.474Z,9.73
2023-01-12T08:44:11.153Z,8.90
2023-01-12T08:46:40.708Z,9.23
2023-01-12T08:49:11.473Z,9.87
2023-01-12T08:51:40.519Z,9.50
2023-01-12T08:54:10.554Z,9.63
2023-01-12T08:56:38.766Z,9.83
2023-01-12T08:59:08.598Z,10.30
2023-01-12T09:01:37.385Z,9.07
2023-01-12T09:04:06.108Z,9.20
2023-01-12T09:06:37.078Z,8.80
2023-01-12T09:09:08.379Z,7.77
2023-01-12T09:11:37.891Z,7.53
2023-01-12T09:14:06.456Z,8.43
2023-01-12T09:16:36.039Z,7.80
2023-01-12T09:19:04.807Z,9.13
2023-01-12T09:21:33.468Z,7.33
2023-01-12T09:24:01.576Z,7.57
2023-01-12T09:26:32.559Z,6.97
2023-01-12T09:29:00.953Z,7.73
2023-01-12T09:31:30.324Z,8.17
2023-01-12T09:34:00.778Z,8.03
2023-01-12T09:36:30.620Z,8.90
2023-01-12T09:38:59.169Z,8.13
2023-01-12T09:41:43.507Z,9.30
2023-01-12T09:44:37.822Z,8.33
2023-01-12T09:47:11.457Z,7.77
2023-01-12T09:49:45.351Z,7.00
2023-01-12T09:52:18.516Z,7.83
2023-01-12T09:54:50.644Z,7.30
2023-01-12T09:57:50.756Z,7.30
2023-01-12T10:00:20.573Z,7.37
2023-01-12T10:02:52.504Z,6.90
2023-01-12T10:05:39.533Z,7.57
2023-01-12T10:08:17.336Z,7.73
2023-01-12T10:10:57.984Z,7.13
2023-01-12T10:13:32.799Z,6.63
2023-01-12T10:16:09.392Z,6.17
2023-01-12T10:18:44.825Z,7.00
2023-01-12T10:21:16.039Z,6.60
2023-01-12T10:23:45.413Z,6.67
2023-01-12T10:26:22.197Z,6.17
2023-01-12T10:28:53.555Z,8.17
2023-01-12T10:31:24.158Z,6.13
2023-01-12T10:34:07.177Z,6.50
2023-01-12T10:36:42.734Z,6.57
2023-01-12T10:39:31.318Z,6.57
2023-01-12T10:42:44.050Z,7.67
2023-01-12T10:45:18.285Z,7.63
2023-01-12T10:47:47.208Z,7.80
2023-01-12T10:50:22.891Z,7.00
2023-01-12T10:52:57.418Z,6.10
2023-01-12T10:55:30.086Z,5.93
2023-01-12T10:57:58.547Z,5.33
2023-01-12T11:00:28.845Z,6.27
2023-01-12T11:02:57.605Z,6.20
2023-01-12T11:05:34.187Z,5.87
2023-01-12T11:08:03.786Z,4.40
2023-01-12T11:10:35.736Z,4.50
2023-01-12T11:13:05.923Z,4.20
2023-01-12T11:15:39.105Z,5.03
2023-01-12T11:18:27.070Z,5.00
2023-01-12T11:20:58.255Z,3.77
2023-01-12T11:23:34.146Z,4.53
2023-01-12T11:26:05.597Z,4.23
2023-01-12T11:28:40.371Z,4.23
2023-01-12T11:31:13.754Z,3.73
2023-01-12T11:33:44.951Z,4.63
2023-01-12T11:36:17.730Z,3.87
2023-01-12T11:38:50.659Z,3.67
2023-01-12T11:41:25.503Z,3.80
2023-01-12T11:43:59.147Z,3.23
2023-01-12T11:46:31.183Z,3.90
2023-01-12T11:49:07.632Z,4.27
2023-01-12T11:51:35.839Z,4.10
2023-01-12T11:54:07.431Z,3.53
2023-01-12T11:57:08.819Z,3.43
2023-01-12T11:59:47.125Z,3.63
2023-01-12T12:02:33.177Z,3.50
2023-01-12T12:05:11.429Z,2.90
2023-01-12T12:07:53.207Z,3.10
2023-01-12T12:10:25.993Z,3.10
2023-01-12T12:13:21.906Z,1.80
2023-01-12T12:15:58.368Z,3.03
2023-01-12T12:18:40.634Z,3.40
2023-01-12T12:21:16.932Z,2.97
2023-01-12T12:23:53.464Z,3.10
2023-01-12T12:26:28.188Z,2.37
2023-01-12T12:29:17.147Z,2.80
2023-01-12T12:31:58.672Z,2.50
2023-01-12T12:34:51.492Z,2.57
2023-01-12T12:37:26.966Z,2.83
2023-01-12T12:40:00.169Z,2.80
2023-01-12T12:43:00.647Z,2.17
2023-01-12T12:45:40.513Z,2.43
2023-01-12T12:48:15.088Z,2.40
2023-01-12T12:50:50.913Z,2.20
2023-01-12T12:53:25.160Z,2.60
2023-01-12T12:55:54.881Z,2.50
2023-01-12T12:58:47.297Z,2.47
2023-01-12T13:02:00.259Z,2.20
2023-01-12T13:05:03.196Z,2.10
2023-01-12T13:07:36.491Z,2.83
2023-01-12T13:10:19.821Z,2.20
2023-01-12T13:12:57.982Z,2.47
2023-01-12T13:15:32.675Z,2.60
2023-01-12T13:18:01.046Z,2.33
2023-01-12T13:20:51.103Z,2.17
2023-01-12T13:23:44.170Z,3.20
2023-01-12T13:26:41.162Z,3.17
2023-01-12T13:29:44.532Z,3.17
2023-01-12T13:32:43.587Z,3.03
2023-01-12T13:35:44.617Z,3.07
2023-01-12T13:38:17.244Z,3.40
2023-01-12T13:40:55.901Z,2.73
2023-01-12T13:43:28.899Z,3.23
2023-01-12T13:45:59.798Z,3.53
2023-01-12T13:48:32.947Z,2.97
2023-01-12T13:51:05.475Z,3.77
2023-01-12T13:53:33.668Z,2.80
2023-01-12T13:56:04.048Z,3.33
2023-01-12T13:58:40.581Z,3.37
2023-01-12T14:01:19.244Z,3.90
2023-01-12T14:04:20.026Z,3.67
2023-01-12T14:07:00.782Z,3.33
2023-01-12T14:09:41.269Z,3.50
2023-01-12T14:12:32.103Z,3.23
2023-01-12T14:15:36.182Z,3.50
2023-01-12T14:18:06.920Z,3.70
2023-01-12T14:20:45.530Z,3.47
2023-01-12T14:23:19.233Z,3.60
2023-01-12T14:25:48.484Z,4.20
2023-01-12T14:28:19.045Z,3.53
2023-01-12T14:30:50.351Z,3.90
2023-01-12T14:33:20.729Z,3.83
2023-01-12T14:35:54.719Z,3.93
2023-01-12T14:38:26.383Z,4.30
2023-01-12T14:41:00.685Z,4.87
2023-01-12T14:43:49.409Z,4.90
2023-01-12T14:46:27.186Z,5.17
2023-01-12T14:48:59.915Z,4.73
2023-01-12T14:51:34.771Z,4.23
2023-01-12T14:54:18.156Z,3.43
2023-01-12T14:56:56.381Z,3.47
2023-01-12T14:59:28.836Z,4.17
2023-01-12T15:02:21.104Z,4.00
2023-01-12T15:04:55.074Z,3.67
2023-01-12T15:07:26.568Z,4.63
2023-01-12T15:09:58.084Z,4.80
2023-01-12T15:12:44.980Z,5.40
2023-01-12T15:15:18.699Z,6.03
2023-01-12T15:18:05.223Z,5.63
2023-01-12T15:20:54.070Z,6.10
2023-01-12T15:23:47.229Z,5.97
2023-01-12T15:26:15.408Z,7.03
2023-01-12T15:28:44.818Z,6.57
2023-01-12T15:31:22.602Z,7.23
2023-01-12T15:33:50.807Z,6.13
2023-01-12T15:36:18.945Z,6.00
2023-01-12T15:38:48.602Z,7.43
2023-01-12T15:41:40.919Z,6.17
2023-01-12T15:44:13.103Z,5.50
2023-01-12T15:46:41.710Z,5.47
2023-01-12T15:49:10.052Z,5.93
2023-01-12T15:51:38.521Z,6.50
2023-01-12T15:54:09.245Z,12.23
2023-01-12T15:56:37.350Z,14.93
2023-01-12T15:59:05.537Z,8.83
2023-01-12T16:01:38.507Z,5.63
2023-01-12T16:04:40.231Z,6.27
2023-01-12T16:06:55.880Z,5.20
2023-01-12T16:09:25.417Z,4.70
2023-01-12T16:11:53.512Z,8.27
2023-01-12T16:14:21.630Z,6.73
2023-01-12T16:16:49.780Z,5.47
2023-01-12T16:19:23.671Z,4.53
2023-01-12T16:21:55.325Z,4.83
2023-01-12T16:24:26.903Z,4.73
2023-01-12T16:26:55.333Z,4.80
2023-01-12T16:29:24.331Z,5.60
2023-01-12T16:31:52.656Z,7.47
2023-01-12T16:34:23.617Z,5.77
2023-01-12T16:36:51.984Z,5.60
2023-01-12T16:39:20.180Z,5.10
2023-01-12T16:41:49.838Z,6.27
2023-01-12T16:44:17.951Z,5.83
2023-01-12T16:46:48.706Z,5.47
2023-01-12T16:49:16.892Z,5.47
2023-01-12T16:51:45.024Z,5.53
2023-01-12T16:54:13.167Z,6.33
2023-01-12T16:56:42.142Z,5.73
2023-01-12T16:59:11.687Z,4.80
2023-01-12T17:01:39.967Z,5.10
2023-01-12T17:04:08.328Z,7.70
2023-01-12T17:06:38.679Z,6.83
2023-01-12T17:09:08.184Z,6.53
2023-01-12T17:11:36.398Z,6.97
2023-01-12T17:14:23.075Z,6.87
2023-01-12T17:16:54.446Z,6.90
2023-01-12T17:19:24.069Z,6.90
2023-01-12T17:21:54.674Z,6.73
2023-01-12T17:24:23.356Z,6.13
2023-01-12T17:26:53.702Z,6.50
2023-01-12T17:29:22.458Z,6.57
2023-01-12T17:31:52.358Z,6.00
2023-01-12T17:34:21.579Z,6.63
2023-01-12T17:36:50.016Z,6.67
2023-01-12T17:39:18.213Z,8.17
2023-01-12T17:42:03.597Z,10.80
2023-01-12T17:44:31.889Z,14.07
2023-01-12T17:47:01.381Z,12.17
2023-01-12T17:49:29.655Z,7.90
2023-01-12T17:51:57.771Z,7.27
2023-01-12T17:54:26.088Z,7.00
2023-01-12T17:56:54.703Z,6.43
2023-01-12T17:59:24.534Z,6.70
2023-01-12T18:01:53.754Z,5.93
2023-01-12T18:04:23.407Z,6.30
2023-01-12T18:06:51.621Z,5.90
2023-01-12T18:09:19.896Z,6.00
2023-01-12T18:11:48.012Z,5.70
2023-01-12T18:14:16.636Z,5.60
2023-01-12T18:16:44.851Z,6.33
2023-01-12T18:19:15.011Z,5.90
2023-01-12T18:21:44.576Z,6.40
2023-01-12T18:24:13.151Z,6.00
2023-01-12T18:26:41.287Z,6.33
2023-01-12T18:29:09.717Z,6.13
2023-01-12T18:31:38.945Z,6.97
2023-01-12T18:34:09.077Z,6.53
2023-01-12T18:36:38.970Z,6.50
2023-01-12T18:39:12.234Z,5.33
2023-01-12T18:41:58.282Z,6.10
2023-01-12T18:44:26.846Z,5.83
2023-01-12T18:47:12.753Z,5.67
2023-01-12T18:49:41.540Z,5.93
2023-01-12T18:52:29.921Z,5.87
2023-01-12T18:54:59.791Z,5.53
2023-01-12T18:57:30.412Z,5.40
2023-01-12T19:00:13.493Z,5.33
2023-01-12T19:02:42.680Z,5.57
2023-01-12T19:05:25.712Z,6.97
2023-01-12T19:08:26.600Z,6.50
2023-01-12T19:10:56.980Z,6.67
2023-01-12T19:13:42.349Z,7.53
2023-01-12T19:16:32.670Z,6.97
2023-01-12T19:19:01.186Z,8.23
2023-01-12T19:21:47.188Z,7.63
2023-01-12T19:24:33.421Z,7.57
2023-01-12T19:27:20.756Z,7.30
2023-01-12T19:29:49.220Z,8.53
2023-01-12T19:32:18.535Z,7.57
2023-01-12T19:34:48.332Z,7.90
2023-01-12T19:37:17.510Z,7.90
2023-01-12T19:40:01.167Z,8.13
2023-01-12T19:42:51.747Z,7.83
2023-01-12T19:45:20.986Z,9.10
2023-01-12T19:47:50.674Z,9.17
2023-01-12T19:50:19.778Z,9.23
2023-01-12T19:52:48.498Z,8.70
2023-01-12T19:55:17.625Z,8.77
2023-01-12T19:57:48.241Z,9.20
2023-01-12T20:00:17.828Z,9.57
2023-01-12T20:02:49.391Z,8.63
2023-01-12T20:05:24.148Z,9.03
2023-01-12T20:07:54.212Z,8.80
2023-01-12T20:10:24.229Z,10.80
2023-01-12T20:12:57.160Z,10.70
2023-01-12T20:15:26.172Z,10.47
2023-01-12T20:17:57.196Z,10.93
2023-01-12T20:20:26.258Z,11.43
2023-01-12T20:22:54.623Z,11.20
2023-01-12T20:25:25.751Z,10.23
2023-01-12T20:27:58.092Z,11.00
2023-01-12T20:30:42.986Z,10.53
2023-01-12T20:33:13.567Z,10.77
2023-01-12T20:35:47.815Z,10.10
2023-01-12T20:38:17.118Z,11.23
2023-01-12T20:40:47.350Z,10.23
2023-01-12T20:43:17.596Z,11.50
2023-01-12T20:45:46.167Z,11.40
2023-01-12T20:48:15.643Z,10.90
2023-01-12T20:50:45.726Z,10.17
2023-01-12T20:53:16.368Z,11.77
2023-01-12T20:55:46.352Z,10.80
2023-01-12T20:58:17.560Z,10.83
2023-01-12T21:00:46.920Z,11.20
2023-01-12T21:03:16.770Z,12.00
2023-01-12T21:05:46.384Z,11.50
2023-01-12T21:08:15.334Z,11.23
2023-01-12T21:10:50.228Z,10.47
2023-01-12T21:13:20.415Z,12.30
2023-01-12T21:15:48.599Z,11.37
2023-01-12T21:18:16.772Z,12.00
2023-01-12T21:20:45.316Z,12.00
2023-01-12T21:23:13.660Z,10.87
2023-01-12T21:25:43.220Z,11.37
2023-01-12T21:28:11.682Z,11.40
2023-01-12T21:30:41.784Z,12.80
2023-01-12T21:33:10.552Z,13.57
2023-01-12T21:35:39.094Z,13.20
2023-01-12T21:38:07.583Z,13.23
2023-01-12T21:40:35.838Z,13.33
2023-01-12T21:43:10.201Z,12.73
2023-01-12T21:45:41.561Z,12.77
2023-01-12T21:48:11.170Z,12.83
2023-01-12T21:50:39.993Z,12.90
2023-01-12T21:53:09.001Z,11.97
2023-01-12T21:55:38.875Z,11.20
2023-01-12T21:58:06.965Z,11.63
2023-01-12T22:00:35.201Z,11.37
2023-01-12T22:03:05.253Z,10.40
2023-01-12T22:05:34.591Z,10.73
2023-01-12T22:08:03.723Z,11.17
2023-01-12T22:10:31.921Z,10.17
2023-01-12T22:13:03.004Z,9.80
2023-01-12T22:15:31.522Z,9.27
2023-01-12T22:18:00.295Z,9.50
2023-01-12T22:20:29.913Z,9.83
2023-01-12T22:22:58.322Z,9.67
2023-01-12T22:25:27.493Z,10.37
2023-01-12T22:27:57.386Z,9.53
2023-01-12T22:30:26.213Z,8.90
2023-01-12T22:32:55.694Z,9.17
2023-01-12T22:35:26.170Z,9.70
2023-01-12T22:37:55.920Z,8.93
2023-01-12T22:40:24.197Z,8.20
2023-01-12T22:43:10.094Z,9.37
2023-01-12T22:45:38.385Z,9.60
2023-01-12T22:48:07.341Z,9.07
2023-01-12T22:50:35.435Z,10.50
2023-01-12T22:53:04.938Z,9.80
2023-01-12T22:55:33.077Z,8.90
2023-01-12T22:58:01.290Z,9.97
2023-01-12T23:00:29.508Z,9.63
2023-01-12T23:03:03.678Z,9.40
2023-01-12T23:05:35.918Z,9.90
2023-01-12T23:08:07.208Z,9.17
2023-01-12T23:10:36.161Z,9.30
2023-01-12T23:13:15.849Z,9.90
2023-01-12T23:15:47.135Z,8.80
2023-01-12T23:18:16.691Z,8.23
2023-01-12T23:20:45.194Z,7.53
2023-01-12T23:23:17.786Z,7.93
2023-01-12T23:25:47.014Z,7.70
2023-01-12T23:28:16.402Z,7.70
2023-01-12T23:30:45.082Z,7.43
2023-01-12T23:33:13.274Z,7.50
2023-01-12T23:35:43.080Z,7.00
2023-01-12T23:38:17.189Z,7.67
2023-01-12T23:40:45.607Z,7.27
2023-01-12T23:43:13.782Z,7.77
2023-01-12T23:45:42.734Z,7.40
2023-01-12T23:48:11.222Z,7.93
2023-01-12T23:50:39.518Z,8.10
2023-01-12T23:53:07.726Z,7.33
2023-01-12T23:55:39.394Z,7.47
2023-01-12T23:58:08.296Z,6.87
